West Pierrepont, New York
Current Conditions -  °F | °C
As of 4:53 AM on Monday 22 Dec 2014 (Local Time) from KMSS Reporting Station
Haze Haze  
Wind Chill:   Ceiling: 400
Heat Index: 15°   Visibility: 4mi
Dew Point: 13°   Wind: 5mph
Humidity: 91%   Direction: 90°E
Pressure: 30.4"   Gusts: NA
Location:  44.5792°N, 75.1592°W
Report Text: KMSS 220953Z AUTO 09004KT 4SM BR OVC004 M09/M11 A3040 RMK AO2 SLP302 T10941106
Loading
Personal Weather Stations






























Interactive Weather Map New forecast layout! Learn more

10-Day Weather Forecast

Advertisements
Track Severe Weather on mobile